sensor_id;sensor_type;location;lat;lon;timestamp;P1;durP1;ratioP1;P2;durP2;ratioP2
52126;SDS011;38120;53.176;6.614;2023-11-19T00:00:09;41.63;;;22.15;;
52126;SDS011;38120;53.176;6.614;2023-11-19T00:02:39;44.95;;;23.17;;
52126;SDS011;38120;53.176;6.614;2023-11-19T00:05:08;36.33;;;21.33;;
52126;SDS011;38120;53.176;6.614;2023-11-19T00:07:36;50.97;;;23.48;;
52126;SDS011;38120;53.176;6.614;2023-11-19T00:10:05;46.58;;;23.45;;
52126;SDS011;38120;53.176;6.614;2023-11-19T00:12:39;44.28;;;22.67;;
52126;SDS011;38120;53.176;6.614;2023-11-19T00:15:06;42.03;;;22.50;;
52126;SDS011;38120;53.176;6.614;2023-11-19T00:17:39;50.20;;;24.95;;
52126;SDS011;38120;53.176;6.614;2023-11-19T00:20:12;46.20;;;24.15;;
52126;SDS011;38120;53.176;6.614;2023-11-19T00:22:47;48.22;;;22.70;;
52126;SDS011;38120;53.176;6.614;2023-11-19T00:25:19;43.33;;;21.70;;
52126;SDS011;38120;53.176;6.614;2023-11-19T00:27:46;45.15;;;21.40;;
52126;SDS011;38120;53.176;6.614;2023-11-19T00:30:12;43.88;;;20.92;;
52126;SDS011;38120;53.176;6.614;2023-11-19T00:35:05;39.60;;;17.00;;
52126;SDS011;38120;53.176;6.614;2023-11-19T00:37:32;34.65;;;16.10;;
52126;SDS011;38120;53.176;6.614;2023-11-19T00:39:58;38.92;;;16.33;;
52126;SDS011;38120;53.176;6.614;2023-11-19T00:42:24;33.00;;;15.07;;
52126;SDS011;38120;53.176;6.614;2023-11-19T00:44:50;38.72;;;16.25;;
52126;SDS011;38120;53.176;6.614;2023-11-19T00:47:16;36.17;;;14.70;;
52126;SDS011;38120;53.176;6.614;2023-11-19T00:49:45;29.58;;;13.05;;
52126;SDS011;38120;53.176;6.614;2023-11-19T00:52:13;34.13;;;12.25;;
52126;SDS011;38120;53.176;6.614;2023-11-19T00:54:39;45.20;;;12.38;;
52126;SDS011;38120;53.176;6.614;2023-11-19T00:57:05;30.87;;;12.97;;
52126;SDS011;38120;53.176;6.614;2023-11-19T00:59:31;29.23;;;11.97;;
52126;SDS011;38120;53.176;6.614;2023-11-19T01:04:24;30.85;;;9.60;;
52126;SDS011;38120;53.176;6.614;2023-11-19T01:06:49;37.67;;;10.80;;
52126;SDS011;38120;53.176;6.614;2023-11-19T01:09:15;26.35;;;9.38;;
52126;SDS011;38120;53.176;6.614;2023-11-19T01:11:41;27.37;;;8.80;;
52126;SDS011;38120;53.176;6.614;2023-11-19T01:14:06;38.73;;;9.17;;
52126;SDS011;38120;53.176;6.614;2023-11-19T01:16:32;27.50;;;10.10;;
52126;SDS011;38120;53.176;6.614;2023-11-19T01:18:58;31.42;;;8.07;;
52126;SDS011;38120;53.176;6.614;2023-11-19T01:21:23;34.17;;;8.23;;
52126;SDS011;38120;53.176;6.614;2023-11-19T01:23:49;36.67;;;8.93;;
52126;SDS011;38120;53.176;6.614;2023-11-19T01:26:15;21.40;;;6.70;;
52126;SDS011;38120;53.176;6.614;2023-11-19T01:28:41;25.10;;;7.60;;
52126;SDS011;38120;53.176;6.614;2023-11-19T01:31:11;20.48;;;6.70;;
52126;SDS011;38120;53.176;6.614;2023-11-19T01:33:39;37.60;;;9.13;;
52126;SDS011;38120;53.176;6.614;2023-11-19T01:36:06;33.75;;;6.25;;
52126;SDS011;38120;53.176;6.614;2023-11-19T01:41:02;33.10;;;8.38;;
52126;SDS011;38120;53.176;6.614;2023-11-19T01:43:38;22.65;;;6.43;;
52126;SDS011;38120;53.176;6.614;2023-11-19T01:46:07;30.52;;;6.43;;
52126;SDS011;38120;53.176;6.614;2023-11-19T01:48:37;24.25;;;8.02;;
52126;SDS011;38120;53.176;6.614;2023-11-19T01:51:08;27.98;;;7.43;;
52126;SDS011;38120;53.176;6.614;2023-11-19T01:56:01;19.85;;;7.20;;
52126;SDS011;38120;53.176;6.614;2023-11-19T01:58:28;28.27;;;6.45;;
52126;SDS011;38120;53.176;6.614;2023-11-19T02:00:55;34.15;;;7.32;;
52126;SDS011;38120;53.176;6.614;2023-11-19T02:03:22;36.25;;;7.78;;
52126;SDS011;38120;53.176;6.614;2023-11-19T02:05:50;36.45;;;7.07;;
52126;SDS011;38120;53.176;6.614;2023-11-19T02:08:18;26.45;;;6.82;;
52126;SDS011;38120;53.176;6.614;2023-11-19T02:10:44;28.02;;;7.20;;
52126;SDS011;38120;53.176;6.614;2023-11-19T02:13:10;18.67;;;6.53;;
52126;SDS011;38120;53.176;6.614;2023-11-19T02:15:38;25.58;;;6.72;;
52126;SDS011;38120;53.176;6.614;2023-11-19T02:18:22;24.80;;;6.78;;
52126;SDS011;38120;53.176;6.614;2023-11-19T02:20:49;32.88;;;7.68;;
52126;SDS011;38120;53.176;6.614;2023-11-19T02:23:16;28.63;;;6.43;;
52126;SDS011;38120;53.176;6.614;2023-11-19T02:25:42;26.98;;;6.85;;
52126;SDS011;38120;53.176;6.614;2023-11-19T02:28:12;28.13;;;6.95;;
52126;SDS011;38120;53.176;6.614;2023-11-19T02:30:38;22.80;;;7.53;;
52126;SDS011;38120;53.176;6.614;2023-11-19T02:33:03;29.15;;;5.80;;
52126;SDS011;38120;53.176;6.614;2023-11-19T02:35:32;28.13;;;7.25;;
52126;SDS011;38120;53.176;6.614;2023-11-19T02:37:58;27.58;;;8.20;;
52126;SDS011;38120;53.176;6.614;2023-11-19T02:40:25;31.08;;;8.30;;
52126;SDS011;38120;53.176;6.614;2023-11-19T02:42:52;24.90;;;9.23;;
52126;SDS011;38120;53.176;6.614;2023-11-19T02:45:19;24.20;;;7.82;;
52126;SDS011;38120;53.176;6.614;2023-11-19T02:47:45;25.52;;;6.63;;
52126;SDS011;38120;53.176;6.614;2023-11-19T02:50:10;27.87;;;6.93;;
52126;SDS011;38120;53.176;6.614;2023-11-19T02:52:45;36.95;;;7.28;;
52126;SDS011;38120;53.176;6.614;2023-11-19T02:55:11;22.90;;;7.38;;
52126;SDS011;38120;53.176;6.614;2023-11-19T02:57:41;30.58;;;7.22;;
52126;SDS011;38120;53.176;6.614;2023-11-19T03:02:48;31.63;;;7.78;;
52126;SDS011;38120;53.176;6.614;2023-11-19T03:05:23;28.33;;;7.18;;
52126;SDS011;38120;53.176;6.614;2023-11-19T03:07:50;26.65;;;6.85;;
52126;SDS011;38120;53.176;6.614;2023-11-19T03:10:16;23.65;;;6.93;;
52126;SDS011;38120;53.176;6.614;2023-11-19T03:12:43;28.77;;;7.73;;
52126;SDS011;38120;53.176;6.614;2023-11-19T03:15:10;27.08;;;6.18;;
52126;SDS011;38120;53.176;6.614;2023-11-19T03:20:07;22.63;;;6.13;;
52126;SDS011;38120;53.176;6.614;2023-11-19T03:22:40;24.80;;;7.10;;
52126;SDS011;38120;53.176;6.614;2023-11-19T03:25:07;29.90;;;9.05;;
52126;SDS011;38120;53.176;6.614;2023-11-19T03:27:37;26.30;;;7.03;;
52126;SDS011;38120;53.176;6.614;2023-11-19T03:30:12;27.90;;;6.97;;
52126;SDS011;38120;53.176;6.614;2023-11-19T03:32:38;27.58;;;7.38;;
52126;SDS011;38120;53.176;6.614;2023-11-19T03:35:04;27.40;;;8.35;;
52126;SDS011;38120;53.176;6.614;2023-11-19T03:37:32;26.73;;;7.00;;
52126;SDS011;38120;53.176;6.614;2023-11-19T03:39:58;23.95;;;7.05;;
52126;SDS011;38120;53.176;6.614;2023-11-19T03:44:52;34.53;;;6.13;;
52126;SDS011;38120;53.176;6.614;2023-11-19T03:49:50;30.15;;;8.05;;
52126;SDS011;38120;53.176;6.614;2023-11-19T03:52:16;22.75;;;5.88;;
52126;SDS011;38120;53.176;6.614;2023-11-19T03:54:43;27.02;;;6.90;;
52126;SDS011;38120;53.176;6.614;2023-11-19T03:57:09;14.07;;;4.63;;
52126;SDS011;38120;53.176;6.614;2023-11-19T03:59:35;25.42;;;7.22;;
52126;SDS011;38120;53.176;6.614;2023-11-19T04:02:01;29.08;;;7.00;;
52126;SDS011;38120;53.176;6.614;2023-11-19T04:04:28;28.60;;;6.38;;
52126;SDS011;38120;53.176;6.614;2023-11-19T04:07:00;30.88;;;6.63;;
52126;SDS011;38120;53.176;6.614;2023-11-19T04:09:27;27.88;;;6.15;;
52126;SDS011;38120;53.176;6.614;2023-11-19T04:11:53;23.35;;;6.63;;
52126;SDS011;38120;53.176;6.614;2023-11-19T04:14:19;28.48;;;7.55;;
52126;SDS011;38120;53.176;6.614;2023-11-19T04:16:45;29.10;;;6.27;;
52126;SDS011;38120;53.176;6.614;2023-11-19T04:19:11;34.67;;;7.13;;
52126;SDS011;38120;53.176;6.614;2023-11-19T04:21:39;28.20;;;6.53;;
52126;SDS011;38120;53.176;6.614;2023-11-19T04:24:06;27.17;;;6.85;;
52126;SDS011;38120;53.176;6.614;2023-11-19T04:26:32;25.80;;;7.25;;
52126;SDS011;38120;53.176;6.614;2023-11-19T04:31:28;29.30;;;7.18;;
52126;SDS011;38120;53.176;6.614;2023-11-19T04:33:56;31.25;;;8.30;;
52126;SDS011;38120;53.176;6.614;2023-11-19T04:36:22;31.60;;;6.45;;
52126;SDS011;38120;53.176;6.614;2023-11-19T04:38:49;25.58;;;6.53;;
52126;SDS011;38120;53.176;6.614;2023-11-19T04:41:15;24.70;;;7.10;;
52126;SDS011;38120;53.176;6.614;2023-11-19T04:43:41;30.00;;;6.93;;
52126;SDS011;38120;53.176;6.614;2023-11-19T04:46:07;29.23;;;6.10;;
52126;SDS011;38120;53.176;6.614;2023-11-19T04:48:35;33.90;;;8.23;;
52126;SDS011;38120;53.176;6.614;2023-11-19T04:51:00;23.60;;;7.28;;
52126;SDS011;38120;53.176;6.614;2023-11-19T04:53:26;28.52;;;6.72;;
52126;SDS011;38120;53.176;6.614;2023-11-19T04:55:52;21.53;;;6.07;;
52126;SDS011;38120;53.176;6.614;2023-11-19T04:58:17;37.28;;;8.80;;
52126;SDS011;38120;53.176;6.614;2023-11-19T05:00:44;30.65;;;7.93;;
52126;SDS011;38120;53.176;6.614;2023-11-19T05:03:10;22.98;;;6.20;;
52126;SDS011;38120;53.176;6.614;2023-11-19T05:05:36;25.67;;;6.78;;
52126;SDS011;38120;53.176;6.614;2023-11-19T05:08:01;28.13;;;7.07;;
52126;SDS011;38120;53.176;6.614;2023-11-19T05:10:27;20.10;;;5.85;;
52126;SDS011;38120;53.176;6.614;2023-11-19T05:12:53;39.22;;;8.48;;
52126;SDS011;38120;53.176;6.614;2023-11-19T05:15:21;36.33;;;8.32;;
52126;SDS011;38120;53.176;6.614;2023-11-19T05:17:47;37.40;;;8.32;;
52126;SDS011;38120;53.176;6.614;2023-11-19T05:20:13;31.98;;;7.78;;
52126;SDS011;38120;53.176;6.614;2023-11-19T05:22:42;25.33;;;7.07;;
52126;SDS011;38120;53.176;6.614;2023-11-19T05:25:08;23.98;;;7.53;;
52126;SDS011;38120;53.176;6.614;2023-11-19T05:27:34;35.65;;;8.35;;
52126;SDS011;38120;53.176;6.614;2023-11-19T05:30:01;38.53;;;7.75;;
52126;SDS011;38120;53.176;6.614;2023-11-19T05:32:27;36.63;;;9.13;;
52126;SDS011;38120;53.176;6.614;2023-11-19T05:34:53;33.07;;;7.87;;
52126;SDS011;38120;53.176;6.614;2023-11-19T05:37:19;31.20;;;7.23;;
52126;SDS011;38120;53.176;6.614;2023-11-19T05:39:45;27.35;;;7.43;;
52126;SDS011;38120;53.176;6.614;2023-11-19T05:42:11;34.75;;;7.90;;
52126;SDS011;38120;53.176;6.614;2023-11-19T05:44:36;29.07;;;7.63;;
52126;SDS011;38120;53.176;6.614;2023-11-19T05:47:03;29.73;;;5.38;;
52126;SDS011;38120;53.176;6.614;2023-11-19T05:49:29;19.38;;;5.78;;
52126;SDS011;38120;53.176;6.614;2023-11-19T05:51:54;31.80;;;7.40;;
52126;SDS011;38120;53.176;6.614;2023-11-19T05:54:21;30.40;;;7.95;;
52126;SDS011;38120;53.176;6.614;2023-11-19T05:56:47;33.55;;;6.88;;
52126;SDS011;38120;53.176;6.614;2023-11-19T05:59:14;25.95;;;7.43;;
52126;SDS011;38120;53.176;6.614;2023-11-19T06:01:42;34.50;;;7.57;;
52126;SDS011;38120;53.176;6.614;2023-11-19T06:06:35;25.33;;;7.45;;
52126;SDS011;38120;53.176;6.614;2023-11-19T06:09:01;23.33;;;6.97;;
52126;SDS011;38120;53.176;6.614;2023-11-19T06:11:31;34.75;;;7.70;;
52126;SDS011;38120;53.176;6.614;2023-11-19T06:13:58;24.90;;;8.75;;
52126;SDS011;38120;53.176;6.614;2023-11-19T06:16:24;35.33;;;8.23;;
52126;SDS011;38120;53.176;6.614;2023-11-19T06:18:49;33.33;;;8.10;;
52126;SDS011;38120;53.176;6.614;2023-11-19T06:21:15;20.13;;;7.07;;
52126;SDS011;38120;53.176;6.614;2023-11-19T06:23:41;29.42;;;7.43;;
52126;SDS011;38120;53.176;6.614;2023-11-19T06:26:07;24.00;;;6.80;;
52126;SDS011;38120;53.176;6.614;2023-11-19T06:28:34;26.42;;;6.93;;
52126;SDS011;38120;53.176;6.614;2023-11-19T06:30:59;31.13;;;7.40;;
52126;SDS011;38120;53.176;6.614;2023-11-19T06:33:25;24.75;;;7.95;;
52126;SDS011;38120;53.176;6.614;2023-11-19T06:35:52;33.55;;;9.27;;
52126;SDS011;38120;53.176;6.614;2023-11-19T06:38:19;32.58;;;8.50;;
52126;SDS011;38120;53.176;6.614;2023-11-19T06:40:45;30.50;;;7.22;;
52126;SDS011;38120;53.176;6.614;2023-11-19T06:43:11;29.88;;;8.07;;
52126;SDS011;38120;53.176;6.614;2023-11-19T06:45:36;35.58;;;9.07;;
52126;SDS011;38120;53.176;6.614;2023-11-19T06:48:05;30.60;;;6.53;;
52126;SDS011;38120;53.176;6.614;2023-11-19T06:50:31;29.85;;;7.25;;
52126;SDS011;38120;53.176;6.614;2023-11-19T06:52:57;36.90;;;8.02;;
52126;SDS011;38120;53.176;6.614;2023-11-19T06:55:24;25.75;;;7.20;;
52126;SDS011;38120;53.176;6.614;2023-11-19T06:57:49;21.13;;;6.63;;
52126;SDS011;38120;53.176;6.614;2023-11-19T07:00:15;38.65;;;9.30;;
52126;SDS011;38120;53.176;6.614;2023-11-19T07:02:41;27.73;;;5.85;;
52126;SDS011;38120;53.176;6.614;2023-11-19T07:05:09;38.47;;;7.35;;
52126;SDS011;38120;53.176;6.614;2023-11-19T07:07:35;33.85;;;6.80;;
52126;SDS011;38120;53.176;6.614;2023-11-19T07:10:01;26.80;;;7.53;;
52126;SDS011;38120;53.176;6.614;2023-11-19T07:12:28;30.15;;;7.75;;
52126;SDS011;38120;53.176;6.614;2023-11-19T07:14:53;23.42;;;5.60;;
52126;SDS011;38120;53.176;6.614;2023-11-19T07:19:46;33.03;;;7.43;;
52126;SDS011;38120;53.176;6.614;2023-11-19T07:22:12;36.78;;;6.75;;
52126;SDS011;38120;53.176;6.614;2023-11-19T07:24:39;35.00;;;8.25;;
52126;SDS011;38120;53.176;6.614;2023-11-19T07:27:06;20.13;;;6.65;;
52126;SDS011;38120;53.176;6.614;2023-11-19T07:29:34;32.35;;;7.88;;
52126;SDS011;38120;53.176;6.614;2023-11-19T07:32:03;26.70;;;6.97;;
52126;SDS011;38120;53.176;6.614;2023-11-19T07:34:30;29.63;;;6.72;;
52126;SDS011;38120;53.176;6.614;2023-11-19T07:36:56;26.95;;;7.80;;
52126;SDS011;38120;53.176;6.614;2023-11-19T07:39:27;33.95;;;7.10;;
52126;SDS011;38120;53.176;6.614;2023-11-19T07:41:53;33.22;;;7.82;;
52126;SDS011;38120;53.176;6.614;2023-11-19T07:44:19;33.70;;;8.77;;
52126;SDS011;38120;53.176;6.614;2023-11-19T07:46:46;31.10;;;8.10;;
52126;SDS011;38120;53.176;6.614;2023-11-19T07:49:13;31.45;;;7.70;;
52126;SDS011;38120;53.176;6.614;2023-11-19T07:51:39;24.15;;;7.55;;
52126;SDS011;38120;53.176;6.614;2023-11-19T07:54:05;25.63;;;6.57;;
52126;SDS011;38120;53.176;6.614;2023-11-19T07:56:34;31.80;;;8.75;;
52126;SDS011;38120;53.176;6.614;2023-11-19T07:59:01;20.45;;;5.53;;
52126;SDS011;38120;53.176;6.614;2023-11-19T08:01:29;23.80;;;6.30;;
52126;SDS011;38120;53.176;6.614;2023-11-19T08:03:55;30.35;;;7.20;;
52126;SDS011;38120;53.176;6.614;2023-11-19T08:06:21;33.50;;;7.05;;
52126;SDS011;38120;53.176;6.614;2023-11-19T08:08:47;31.17;;;7.32;;
52126;SDS011;38120;53.176;6.614;2023-11-19T08:11:13;34.33;;;8.07;;
52126;SDS011;38120;53.176;6.614;2023-11-19T08:13:39;32.17;;;7.53;;
52126;SDS011;38120;53.176;6.614;2023-11-19T08:16:05;26.42;;;7.70;;
52126;SDS011;38120;53.176;6.614;2023-11-19T08:18:31;39.15;;;8.25;;
52126;SDS011;38120;53.176;6.614;2023-11-19T08:20:56;23.60;;;6.65;;
52126;SDS011;38120;53.176;6.614;2023-11-19T08:23:24;26.30;;;6.35;;
52126;SDS011;38120;53.176;6.614;2023-11-19T08:28:16;30.38;;;7.78;;
52126;SDS011;38120;53.176;6.614;2023-11-19T08:30:42;22.83;;;6.78;;
52126;SDS011;38120;53.176;6.614;2023-11-19T08:33:09;33.67;;;7.45;;
52126;SDS011;38120;53.176;6.614;2023-11-19T08:35:35;27.17;;;6.70;;
52126;SDS011;38120;53.176;6.614;2023-11-19T08:38:00;28.15;;;7.97;;
52126;SDS011;38120;53.176;6.614;2023-11-19T08:40:27;32.90;;;7.93;;
52126;SDS011;38120;53.176;6.614;2023-11-19T08:42:53;28.13;;;7.30;;
52126;SDS011;38120;53.176;6.614;2023-11-19T08:45:18;27.87;;;6.53;;
52126;SDS011;38120;53.176;6.614;2023-11-19T08:47:44;26.17;;;8.00;;
52126;SDS011;38120;53.176;6.614;2023-11-19T08:50:10;28.25;;;6.05;;
52126;SDS011;38120;53.176;6.614;2023-11-19T08:55:02;30.45;;;7.05;;
52126;SDS011;38120;53.176;6.614;2023-11-19T08:57:30;32.15;;;7.28;;
52126;SDS011;38120;53.176;6.614;2023-11-19T08:59:56;27.40;;;6.65;;
52126;SDS011;38120;53.176;6.614;2023-11-19T09:02:22;36.43;;;8.33;;
52126;SDS011;38120;53.176;6.614;2023-11-19T09:04:48;26.73;;;6.93;;
52126;SDS011;38120;53.176;6.614;2023-11-19T09:07:13;28.93;;;7.57;;
52126;SDS011;38120;53.176;6.614;2023-11-19T09:09:39;26.07;;;5.47;;
52126;SDS011;38120;53.176;6.614;2023-11-19T09:12:05;30.80;;;7.40;;
52126;SDS011;38120;53.176;6.614;2023-11-19T09:14:31;44.03;;;8.90;;
52126;SDS011;38120;53.176;6.614;2023-11-19T09:16:57;35.08;;;6.70;;
52126;SDS011;38120;53.176;6.614;2023-11-19T09:19:23;35.30;;;6.65;;
52126;SDS011;38120;53.176;6.614;2023-11-19T09:21:49;33.70;;;6.95;;
52126;SDS011;38120;53.176;6.614;2023-11-19T09:24:15;33.28;;;7.95;;
52126;SDS011;38120;53.176;6.614;2023-11-19T09:26:41;30.00;;;8.75;;
52126;SDS011;38120;53.176;6.614;2023-11-19T09:29:07;31.08;;;6.90;;
52126;SDS011;38120;53.176;6.614;2023-11-19T09:31:33;26.48;;;7.05;;
52126;SDS011;38120;53.176;6.614;2023-11-19T09:33:59;42.45;;;8.90;;
52126;SDS011;38120;53.176;6.614;2023-11-19T09:36:25;31.70;;;7.30;;
52126;SDS011;38120;53.176;6.614;2023-11-19T09:38:51;30.85;;;6.78;;
52126;SDS011;38120;53.176;6.614;2023-11-19T09:41:17;28.57;;;7.40;;
52126;SDS011;38120;53.176;6.614;2023-11-19T09:43:44;26.02;;;6.75;;
52126;SDS011;38120;53.176;6.614;2023-11-19T09:51:08;28.50;;;7.88;;
52126;SDS011;38120;53.176;6.614;2023-11-19T09:53:36;23.70;;;6.72;;
52126;SDS011;38120;53.176;6.614;2023-11-19T09:56:05;31.85;;;7.30;;
52126;SDS011;38120;53.176;6.614;2023-11-19T09:58:33;19.95;;;6.28;;
52126;SDS011;38120;53.176;6.614;2023-11-19T10:00:59;22.48;;;5.55;;
52126;SDS011;38120;53.176;6.614;2023-11-19T10:05:57;21.33;;;5.68;;
52126;SDS011;38120;53.176;6.614;2023-11-19T10:08:24;30.83;;;6.50;;
52126;SDS011;38120;53.176;6.614;2023-11-19T10:10:50;28.83;;;7.72;;
52126;SDS011;38120;53.176;6.614;2023-11-19T10:15:43;36.25;;;6.13;;
52126;SDS011;38120;53.176;6.614;2023-11-19T10:20:40;38.15;;;7.63;;
52126;SDS011;38120;53.176;6.614;2023-11-19T10:23:06;24.55;;;6.47;;
52126;SDS011;38120;53.176;6.614;2023-11-19T10:25:33;20.98;;;6.20;;
52126;SDS011;38120;53.176;6.614;2023-11-19T10:27:59;25.73;;;5.70;;
52126;SDS011;38120;53.176;6.614;2023-11-19T10:30:26;32.38;;;6.70;;
52126;SDS011;38120;53.176;6.614;2023-11-19T10:33:07;24.38;;;6.22;;
52126;SDS011;38120;53.176;6.614;2023-11-19T10:35:35;37.92;;;7.22;;
52126;SDS011;38120;53.176;6.614;2023-11-19T10:38:14;31.95;;;6.78;;
52126;SDS011;38120;53.176;6.614;2023-11-19T10:40:41;29.92;;;6.45;;
52126;SDS011;38120;53.176;6.614;2023-11-19T10:43:07;25.20;;;6.53;;
52126;SDS011;38120;53.176;6.614;2023-11-19T10:45:33;31.77;;;7.45;;
52126;SDS011;38120;53.176;6.614;2023-11-19T10:48:00;24.98;;;6.32;;
52126;SDS011;38120;53.176;6.614;2023-11-19T10:50:29;31.67;;;8.60;;
52126;SDS011;38120;53.176;6.614;2023-11-19T10:52:56;29.40;;;6.22;;
52126;SDS011;38120;53.176;6.614;2023-11-19T10:55:45;27.92;;;7.63;;
52126;SDS011;38120;53.176;6.614;2023-11-19T10:58:13;26.48;;;5.03;;
52126;SDS011;38120;53.176;6.614;2023-11-19T11:00:45;32.35;;;7.18;;
52126;SDS011;38120;53.176;6.614;2023-11-19T11:03:21;24.80;;;6.00;;
52126;SDS011;38120;53.176;6.614;2023-11-19T11:05:50;24.63;;;5.85;;
52126;SDS011;38120;53.176;6.614;2023-11-19T11:08:17;18.60;;;5.43;;
52126;SDS011;38120;53.176;6.614;2023-11-19T11:10:44;33.85;;;6.85;;
52126;SDS011;38120;53.176;6.614;2023-11-19T11:13:13;27.00;;;6.82;;
52126;SDS011;38120;53.176;6.614;2023-11-19T11:15:40;27.52;;;8.20;;
52126;SDS011;38120;53.176;6.614;2023-11-19T11:18:08;26.75;;;6.07;;
52126;SDS011;38120;53.176;6.614;2023-11-19T11:20:34;30.23;;;6.95;;
52126;SDS011;38120;53.176;6.614;2023-11-19T11:28:56;24.73;;;6.05;;
52126;SDS011;38120;53.176;6.614;2023-11-19T11:31:29;24.40;;;6.28;;
52126;SDS011;38120;53.176;6.614;2023-11-19T11:34:20;26.35;;;6.60;;
52126;SDS011;38120;53.176;6.614;2023-11-19T11:37:21;29.15;;;5.82;;
52126;SDS011;38120;53.176;6.614;2023-11-19T11:39:57;20.05;;;6.18;;
52126;SDS011;38120;53.176;6.614;2023-11-19T11:44:58;21.00;;;5.80;;
52126;SDS011;38120;53.176;6.614;2023-11-19T11:50:15;24.35;;;5.70;;
52126;SDS011;38120;53.176;6.614;2023-11-19T11:57:57;24.17;;;6.13;;
52126;SDS011;38120;53.176;6.614;2023-11-19T12:03:01;29.35;;;6.07;;
52126;SDS011;38120;53.176;6.614;2023-11-19T12:05:27;22.30;;;5.10;;
52126;SDS011;38120;53.176;6.614;2023-11-19T12:07:55;27.95;;;6.78;;
52126;SDS011;38120;53.176;6.614;2023-11-19T12:10:29;24.85;;;6.05;;
52126;SDS011;38120;53.176;6.614;2023-11-19T12:12:59;22.00;;;5.68;;
52126;SDS011;38120;53.176;6.614;2023-11-19T12:15:26;27.30;;;8.10;;
52126;SDS011;38120;53.176;6.614;2023-11-19T12:17:53;28.63;;;7.25;;
52126;SDS011;38120;53.176;6.614;2023-11-19T12:20:23;26.50;;;5.90;;
52126;SDS011;38120;53.176;6.614;2023-11-19T12:22:50;29.17;;;8.80;;
52126;SDS011;38120;53.176;6.614;2023-11-19T12:25:16;26.63;;;6.47;;
52126;SDS011;38120;53.176;6.614;2023-11-19T12:27:48;22.92;;;6.82;;
52126;SDS011;38120;53.176;6.614;2023-11-19T12:30:25;33.95;;;6.72;;
52126;SDS011;38120;53.176;6.614;2023-11-19T12:32:51;19.63;;;5.63;;
52126;SDS011;38120;53.176;6.614;2023-11-19T12:35:21;18.20;;;5.28;;
52126;SDS011;38120;53.176;6.614;2023-11-19T12:40:14;25.42;;;5.90;;
52126;SDS011;38120;53.176;6.614;2023-11-19T12:42:42;23.00;;;5.38;;
52126;SDS011;38120;53.176;6.614;2023-11-19T12:45:09;26.52;;;5.57;;
52126;SDS011;38120;53.176;6.614;2023-11-19T12:47:42;24.08;;;6.47;;
52126;SDS011;38120;53.176;6.614;2023-11-19T12:50:09;22.95;;;5.55;;
52126;SDS011;38120;53.176;6.614;2023-11-19T12:52:35;23.30;;;5.60;;
52126;SDS011;38120;53.176;6.614;2023-11-19T12:55:03;21.65;;;5.95;;
52126;SDS011;38120;53.176;6.614;2023-11-19T12:57:40;22.30;;;5.78;;
52126;SDS011;38120;53.176;6.614;2023-11-19T13:00:07;17.90;;;4.65;;
52126;SDS011;38120;53.176;6.614;2023-11-19T13:02:45;20.42;;;5.28;;
52126;SDS011;38120;53.176;6.614;2023-11-19T13:05:34;20.85;;;5.18;;
52126;SDS011;38120;53.176;6.614;2023-11-19T13:08:06;22.50;;;5.45;;
52126;SDS011;38120;53.176;6.614;2023-11-19T13:10:34;23.05;;;5.40;;
52126;SDS011;38120;53.176;6.614;2023-11-19T13:13:18;23.98;;;5.72;;
52126;SDS011;38120;53.176;6.614;2023-11-19T13:15:44;16.60;;;5.32;;
52126;SDS011;38120;53.176;6.614;2023-11-19T13:18:10;18.27;;;5.28;;
52126;SDS011;38120;53.176;6.614;2023-11-19T13:20:37;21.98;;;4.22;;
52126;SDS011;38120;53.176;6.614;2023-11-19T13:25:30;17.95;;;5.18;;
52126;SDS011;38120;53.176;6.614;2023-11-19T13:27:57;23.73;;;4.82;;
52126;SDS011;38120;53.176;6.614;2023-11-19T13:30:23;24.40;;;5.63;;
52126;SDS011;38120;53.176;6.614;2023-11-19T13:32:49;23.05;;;5.10;;
52126;SDS011;38120;53.176;6.614;2023-11-19T13:35:16;21.80;;;5.55;;
52126;SDS011;38120;53.176;6.614;2023-11-19T13:37:43;20.05;;;5.57;;
52126;SDS011;38120;53.176;6.614;2023-11-19T13:40:10;24.90;;;5.53;;
52126;SDS011;38120;53.176;6.614;2023-11-19T13:42:43;18.70;;;4.05;;
52126;SDS011;38120;53.176;6.614;2023-11-19T13:45:13;18.45;;;7.45;;
52126;SDS011;38120;53.176;6.614;2023-11-19T13:50:12;28.15;;;5.82;;
52126;SDS011;38120;53.176;6.614;2023-11-19T13:52:40;22.80;;;6.78;;
52126;SDS011;38120;53.176;6.614;2023-11-19T13:55:08;18.17;;;6.60;;
52126;SDS011;38120;53.176;6.614;2023-11-19T13:57:35;25.58;;;4.88;;
52126;SDS011;38120;53.176;6.614;2023-11-19T14:00:05;25.30;;;5.55;;
52126;SDS011;38120;53.176;6.614;2023-11-19T14:02:36;21.45;;;5.00;;
52126;SDS011;38120;53.176;6.614;2023-11-19T14:05:01;23.70;;;6.20;;
52126;SDS011;38120;53.176;6.614;2023-11-19T14:07:27;23.77;;;6.15;;
52126;SDS011;38120;53.176;6.614;2023-11-19T14:09:53;22.70;;;5.68;;
52126;SDS011;38120;53.176;6.614;2023-11-19T14:12:20;28.30;;;5.13;;
52126;SDS011;38120;53.176;6.614;2023-11-19T14:14:45;25.10;;;6.63;;
52126;SDS011;38120;53.176;6.614;2023-11-19T14:17:11;21.08;;;4.47;;
52126;SDS011;38120;53.176;6.614;2023-11-19T14:19:41;24.25;;;5.30;;
52126;SDS011;38120;53.176;6.614;2023-11-19T14:22:07;24.10;;;4.68;;
52126;SDS011;38120;53.176;6.614;2023-11-19T14:24:33;26.20;;;8.30;;
52126;SDS011;38120;53.176;6.614;2023-11-19T14:27:00;21.23;;;5.13;;
52126;SDS011;38120;53.176;6.614;2023-11-19T14:29:26;25.67;;;5.00;;
52126;SDS011;38120;53.176;6.614;2023-11-19T14:31:54;19.83;;;4.80;;
52126;SDS011;38120;53.176;6.614;2023-11-19T14:34:20;20.88;;;5.88;;
52126;SDS011;38120;53.176;6.614;2023-11-19T14:36:46;20.77;;;4.95;;
52126;SDS011;38120;53.176;6.614;2023-11-19T14:39:12;26.02;;;6.65;;
52126;SDS011;38120;53.176;6.614;2023-11-19T14:41:38;19.60;;;5.82;;
52126;SDS011;38120;53.176;6.614;2023-11-19T14:44:04;25.13;;;6.03;;
52126;SDS011;38120;53.176;6.614;2023-11-19T14:46:30;18.73;;;4.82;;
52126;SDS011;38120;53.176;6.614;2023-11-19T14:48:59;20.13;;;4.80;;
52126;SDS011;38120;53.176;6.614;2023-11-19T14:51:25;24.10;;;4.78;;
52126;SDS011;38120;53.176;6.614;2023-11-19T14:53:51;19.77;;;5.15;;
52126;SDS011;38120;53.176;6.614;2023-11-19T14:56:16;32.43;;;7.33;;
52126;SDS011;38120;53.176;6.614;2023-11-19T14:58:42;17.48;;;5.22;;
52126;SDS011;38120;53.176;6.614;2023-11-19T15:01:13;21.00;;;5.82;;
52126;SDS011;38120;53.176;6.614;2023-11-19T15:03:39;25.13;;;5.97;;
52126;SDS011;38120;53.176;6.614;2023-11-19T15:06:05;26.40;;;5.78;;
52126;SDS011;38120;53.176;6.614;2023-11-19T15:08:32;26.48;;;5.90;;
52126;SDS011;38120;53.176;6.614;2023-11-19T15:10:58;25.08;;;5.30;;
52126;SDS011;38120;53.176;6.614;2023-11-19T15:13:34;25.50;;;6.50;;
52126;SDS011;38120;53.176;6.614;2023-11-19T15:16:02;27.27;;;7.70;;
52126;SDS011;38120;53.176;6.614;2023-11-19T15:18:30;26.13;;;5.72;;
52126;SDS011;38120;53.176;6.614;2023-11-19T15:20:56;18.65;;;5.70;;
52126;SDS011;38120;53.176;6.614;2023-11-19T15:23:22;20.75;;;5.63;;
52126;SDS011;38120;53.176;6.614;2023-11-19T15:25:49;28.67;;;6.63;;
52126;SDS011;38120;53.176;6.614;2023-11-19T15:28:15;28.00;;;6.18;;
52126;SDS011;38120;53.176;6.614;2023-11-19T15:30:47;20.92;;;6.47;;
52126;SDS011;38120;53.176;6.614;2023-11-19T15:33:13;26.77;;;4.78;;
52126;SDS011;38120;53.176;6.614;2023-11-19T15:35:38;21.65;;;5.47;;
52126;SDS011;38120;53.176;6.614;2023-11-19T15:38:05;19.90;;;4.72;;
52126;SDS011;38120;53.176;6.614;2023-11-19T15:40:34;20.30;;;5.47;;
52126;SDS011;38120;53.176;6.614;2023-11-19T15:43:01;25.65;;;5.15;;
52126;SDS011;38120;53.176;6.614;2023-11-19T15:45:27;20.65;;;4.72;;